sensor_id;sensor_type;location;lat;lon;timestamp;temperature;humidity
12384;DHT22;6256;63.808;20.336;2023-01-08T00:01:54;-3.60;99.90
12384;DHT22;6256;63.808;20.336;2023-01-08T00:04:19;-3.60;99.90
12384;DHT22;6256;63.808;20.336;2023-01-08T00:06:45;-3.60;99.90
12384;DHT22;6256;63.808;20.336;2023-01-08T00:09:11;-3.60;99.90
12384;DHT22;6256;63.808;20.336;2023-01-08T00:11:37;-3.60;99.90
12384;DHT22;6256;63.808;20.336;2023-01-08T00:14:02;-3.60;99.90
12384;DHT22;6256;63.808;20.336;2023-01-08T00:16:29;-3.60;99.90
12384;DHT22;6256;63.808;20.336;2023-01-08T00:18:55;-3.50;99.90
12384;DHT22;6256;63.808;20.336;2023-01-08T00:21:20;-3.50;99.90
12384;DHT22;6256;63.808;20.336;2023-01-08T00:23:46;-3.40;99.90
12384;DHT22;6256;63.808;20.336;2023-01-08T00:26:12;-3.50;99.90
12384;DHT22;6256;63.808;20.336;2023-01-08T00:28:39;-3.50;99.90
12384;DHT22;6256;63.808;20.336;2023-01-08T00:31:06;-3.50;99.90
12384;DHT22;6256;63.808;20.336;2023-01-08T00:33:33;-3.60;99.90
12384;DHT22;6256;63.808;20.336;2023-01-08T00:35:59;-3.50;99.90
12384;DHT22;6256;63.808;20.336;2023-01-08T00:38:26;-3.60;99.90
12384;DHT22;6256;63.808;20.336;2023-01-08T00:40:51;-3.60;99.90
12384;DHT22;6256;63.808;20.336;2023-01-08T00:43:17;-3.60;99.90
12384;DHT22;6256;63.808;20.336;2023-01-08T00:45:42;-3.60;99.90
12384;DHT22;6256;63.808;20.336;2023-01-08T00:48:09;-3.70;99.90
12384;DHT22;6256;63.808;20.336;2023-01-08T00:50:34;-3.60;99.90
12384;DHT22;6256;63.808;20.336;2023-01-08T00:53:00;-3.70;99.90
12384;DHT22;6256;63.808;20.336;2023-01-08T00:55:28;-3.70;99.90
12384;DHT22;6256;63.808;20.336;2023-01-08T00:57:53;-3.70;99.90
12384;DHT22;6256;63.808;20.336;2023-01-08T01:00:20;-3.60;99.90
12384;DHT22;6256;63.808;20.336;2023-01-08T01:02:45;-3.70;99.90
12384;DHT22;6256;63.808;20.336;2023-01-08T01:05:12;-3.70;99.90
12384;DHT22;6256;63.808;20.336;2023-01-08T01:07:40;-3.70;99.90
12384;DHT22;6256;63.808;20.336;2023-01-08T01:10:07;-3.70;99.90
12384;DHT22;6256;63.808;20.336;2023-01-08T01:12:32;-3.60;99.90
12384;DHT22;6256;63.808;20.336;2023-01-08T01:14:58;-3.60;99.90
12384;DHT22;6256;63.808;20.336;2023-01-08T01:17:24;-3.70;99.90
12384;DHT22;6256;63.808;20.336;2023-01-08T01:19:50;-3.80;99.90
12384;DHT22;6256;63.808;20.336;2023-01-08T01:22:15;-3.80;99.90
12384;DHT22;6256;63.808;20.336;2023-01-08T01:24:41;-3.80;99.90
12384;DHT22;6256;63.808;20.336;2023-01-08T01:27:09;-3.80;99.90
12384;DHT22;6256;63.808;20.336;2023-01-08T01:29:35;-3.90;99.90
12384;DHT22;6256;63.808;20.336;2023-01-08T01:32:00;-3.90;99.90
12384;DHT22;6256;63.808;20.336;2023-01-08T01:34:26;-3.90;99.90
12384;DHT22;6256;63.808;20.336;2023-01-08T01:36:52;-3.90;99.90
12384;DHT22;6256;63.808;20.336;2023-01-08T01:39:18;-3.80;99.90
12384;DHT22;6256;63.808;20.336;2023-01-08T01:41:44;-3.90;99.90
12384;DHT22;6256;63.808;20.336;2023-01-08T01:44:45;-3.90;99.90
12384;DHT22;6256;63.808;20.336;2023-01-08T01:47:30;-3.90;99.90
12384;DHT22;6256;63.808;20.336;2023-01-08T01:50:21;-3.90;99.90
12384;DHT22;6256;63.808;20.336;2023-01-08T01:53:04;-3.90;99.90
12384;DHT22;6256;63.808;20.336;2023-01-08T01:55:31;-3.90;99.90
12384;DHT22;6256;63.808;20.336;2023-01-08T01:58:24;-3.90;99.90
12384;DHT22;6256;63.808;20.336;2023-01-08T02:00:51;-3.90;99.90
12384;DHT22;6256;63.808;20.336;2023-01-08T02:03:21;-3.90;99.90
12384;DHT22;6256;63.808;20.336;2023-01-08T02:14:31;-3.90;99.90
12384;DHT22;6256;63.808;20.336;2023-01-08T02:17:02;-3.90;99.90
12384;DHT22;6256;63.808;20.336;2023-01-08T02:19:44;-3.90;99.90
12384;DHT22;6256;63.808;20.336;2023-01-08T02:25:31;-3.90;99.90
12384;DHT22;6256;63.808;20.336;2023-01-08T02:28:06;-3.90;99.90
12384;DHT22;6256;63.808;20.336;2023-01-08T02:30:34;-3.90;99.90
12384;DHT22;6256;63.808;20.336;2023-01-08T02:33:00;-3.90;99.90
12384;DHT22;6256;63.808;20.336;2023-01-08T02:35:51;-3.90;99.90
12384;DHT22;6256;63.808;20.336;2023-01-08T02:38:18;-3.90;99.90
12384;DHT22;6256;63.808;20.336;2023-01-08T02:40:55;-3.90;99.90
12384;DHT22;6256;63.808;20.336;2023-01-08T02:43:30;-3.90;99.90
12384;DHT22;6256;63.808;20.336;2023-01-08T02:46:01;-3.90;99.90
12384;DHT22;6256;63.808;20.336;2023-01-08T02:48:35;-3.90;99.90
12384;DHT22;6256;63.808;20.336;2023-01-08T02:51:17;-3.90;99.90
12384;DHT22;6256;63.808;20.336;2023-01-08T02:53:47;-3.90;99.90
12384;DHT22;6256;63.808;20.336;2023-01-08T02:56:18;-3.90;99.90
12384;DHT22;6256;63.808;20.336;2023-01-08T02:58:46;-3.90;99.90
12384;DHT22;6256;63.808;20.336;2023-01-08T03:01:15;-4.00;99.90
12384;DHT22;6256;63.808;20.336;2023-01-08T03:03:44;-3.90;99.90
12384;DHT22;6256;63.808;20.336;2023-01-08T03:06:13;-3.90;99.90
12384;DHT22;6256;63.808;20.336;2023-01-08T03:08:41;-3.90;99.90
12384;DHT22;6256;63.808;20.336;2023-01-08T03:11:17;-3.90;99.90
12384;DHT22;6256;63.808;20.336;2023-01-08T03:13:56;-3.90;99.90
12384;DHT22;6256;63.808;20.336;2023-01-08T03:16:40;-3.90;99.90
12384;DHT22;6256;63.808;20.336;2023-01-08T03:19:17;-3.90;99.90
12384;DHT22;6256;63.808;20.336;2023-01-08T03:21:45;-3.90;99.90
12384;DHT22;6256;63.808;20.336;2023-01-08T03:24:14;-3.80;99.90
12384;DHT22;6256;63.808;20.336;2023-01-08T03:26:42;-3.90;99.90
12384;DHT22;6256;63.808;20.336;2023-01-08T03:29:12;-3.90;99.90
12384;DHT22;6256;63.808;20.336;2023-01-08T03:31:39;-4.00;99.90
12384;DHT22;6256;63.808;20.336;2023-01-08T03:34:07;-3.90;99.90
12384;DHT22;6256;63.808;20.336;2023-01-08T03:36:33;-3.90;99.90
12384;DHT22;6256;63.808;20.336;2023-01-08T03:39:13;-3.90;99.90
12384;DHT22;6256;63.808;20.336;2023-01-08T03:41:41;-4.00;99.90
12384;DHT22;6256;63.808;20.336;2023-01-08T03:44:06;-3.90;99.90
12384;DHT22;6256;63.808;20.336;2023-01-08T03:46:35;-4.00;99.90
12384;DHT22;6256;63.808;20.336;2023-01-08T03:49:03;-4.00;99.90
12384;DHT22;6256;63.808;20.336;2023-01-08T03:51:47;-4.00;99.90
12384;DHT22;6256;63.808;20.336;2023-01-08T03:54:15;-4.10;99.90
12384;DHT22;6256;63.808;20.336;2023-01-08T03:56:41;-4.00;99.90
12384;DHT22;6256;63.808;20.336;2023-01-08T03:59:07;-4.10;99.90
12384;DHT22;6256;63.808;20.336;2023-01-08T04:01:33;-4.00;99.90
12384;DHT22;6256;63.808;20.336;2023-01-08T04:03:58;-4.00;99.90
12384;DHT22;6256;63.808;20.336;2023-01-08T04:06:24;-4.00;99.90
12384;DHT22;6256;63.808;20.336;2023-01-08T04:08:50;-4.00;99.90
12384;DHT22;6256;63.808;20.336;2023-01-08T04:11:16;-4.00;99.90
12384;DHT22;6256;63.808;20.336;2023-01-08T04:13:41;-4.00;99.90
12384;DHT22;6256;63.808;20.336;2023-01-08T04:16:07;-4.00;99.90
12384;DHT22;6256;63.808;20.336;2023-01-08T04:18:33;-4.00;99.90
12384;DHT22;6256;63.808;20.336;2023-01-08T04:20:59;-4.00;99.90
12384;DHT22;6256;63.808;20.336;2023-01-08T04:23:25;-4.00;99.90
12384;DHT22;6256;63.808;20.336;2023-01-08T04:25:51;-4.00;99.90
12384;DHT22;6256;63.808;20.336;2023-01-08T04:28:17;-4.00;99.90
12384;DHT22;6256;63.808;20.336;2023-01-08T04:30:43;-4.00;99.90
12384;DHT22;6256;63.808;20.336;2023-01-08T04:33:08;-4.00;99.90
12384;DHT22;6256;63.808;20.336;2023-01-08T04:35:34;-4.00;99.90
12384;DHT22;6256;63.808;20.336;2023-01-08T04:38:00;-4.00;99.90
12384;DHT22;6256;63.808;20.336;2023-01-08T04:40:25;-4.00;99.90
12384;DHT22;6256;63.808;20.336;2023-01-08T04:42:51;-4.00;99.90
12384;DHT22;6256;63.808;20.336;2023-01-08T04:45:17;-4.00;99.90
12384;DHT22;6256;63.808;20.336;2023-01-08T04:47:42;-4.10;99.90
12384;DHT22;6256;63.808;20.336;2023-01-08T04:50:08;-4.00;99.90
12384;DHT22;6256;63.808;20.336;2023-01-08T04:52:34;-4.00;99.90
12384;DHT22;6256;63.808;20.336;2023-01-08T04:55:00;-3.90;99.90
12384;DHT22;6256;63.808;20.336;2023-01-08T04:57:26;-3.90;99.90
12384;DHT22;6256;63.808;20.336;2023-01-08T04:59:51;-4.00;99.90
12384;DHT22;6256;63.808;20.336;2023-01-08T05:02:17;-3.90;99.90
12384;DHT22;6256;63.808;20.336;2023-01-08T05:04:43;-3.90;99.90
12384;DHT22;6256;63.808;20.336;2023-01-08T05:07:09;-3.90;99.90
12384;DHT22;6256;63.808;20.336;2023-01-08T05:09:34;-4.00;99.90
12384;DHT22;6256;63.808;20.336;2023-01-08T05:12:00;-3.90;99.90
12384;DHT22;6256;63.808;20.336;2023-01-08T05:14:26;-3.90;99.90
12384;DHT22;6256;63.808;20.336;2023-01-08T05:16:51;-4.00;99.90
12384;DHT22;6256;63.808;20.336;2023-01-08T05:19:17;-4.00;99.90
12384;DHT22;6256;63.808;20.336;2023-01-08T05:21:43;-4.00;99.90
12384;DHT22;6256;63.808;20.336;2023-01-08T05:24:08;-4.00;99.90
12384;DHT22;6256;63.808;20.336;2023-01-08T05:26:34;-4.00;99.90
12384;DHT22;6256;63.808;20.336;2023-01-08T05:29:00;-3.90;99.90
12384;DHT22;6256;63.808;20.336;2023-01-08T05:31:26;-3.90;99.90
12384;DHT22;6256;63.808;20.336;2023-01-08T05:33:52;-3.90;99.90
12384;DHT22;6256;63.808;20.336;2023-01-08T05:36:17;-3.90;99.90
12384;DHT22;6256;63.808;20.336;2023-01-08T05:38:43;-3.80;99.90
12384;DHT22;6256;63.808;20.336;2023-01-08T05:41:09;-3.80;99.90
12384;DHT22;6256;63.808;20.336;2023-01-08T05:43:35;-3.80;99.90
12384;DHT22;6256;63.808;20.336;2023-01-08T05:46:02;-3.80;99.90
12384;DHT22;6256;63.808;20.336;2023-01-08T05:48:29;-3.80;99.90
12384;DHT22;6256;63.808;20.336;2023-01-08T05:50:56;-3.80;99.90
12384;DHT22;6256;63.808;20.336;2023-01-08T05:53:21;-3.80;99.90
12384;DHT22;6256;63.808;20.336;2023-01-08T05:55:47;-3.80;99.90
12384;DHT22;6256;63.808;20.336;2023-01-08T05:58:13;-3.80;99.90
12384;DHT22;6256;63.808;20.336;2023-01-08T06:00:44;-3.70;99.90
12384;DHT22;6256;63.808;20.336;2023-01-08T06:03:09;-3.70;99.90
12384;DHT22;6256;63.808;20.336;2023-01-08T06:05:35;-3.70;99.90
12384;DHT22;6256;63.808;20.336;2023-01-08T06:08:01;-3.70;99.90
12384;DHT22;6256;63.808;20.336;2023-01-08T06:10:27;-3.70;99.90
12384;DHT22;6256;63.808;20.336;2023-01-08T06:12:53;-3.70;99.90
12384;DHT22;6256;63.808;20.336;2023-01-08T06:15:19;-3.60;99.90
12384;DHT22;6256;63.808;20.336;2023-01-08T06:17:45;-3.60;99.90
12384;DHT22;6256;63.808;20.336;2023-01-08T06:20:11;-3.60;99.90
12384;DHT22;6256;63.808;20.336;2023-01-08T06:22:37;-3.60;99.90
12384;DHT22;6256;63.808;20.336;2023-01-08T06:25:03;-3.60;99.90
12384;DHT22;6256;63.808;20.336;2023-01-08T06:27:29;-3.60;99.90
12384;DHT22;6256;63.808;20.336;2023-01-08T06:29:54;-3.60;99.90
12384;DHT22;6256;63.808;20.336;2023-01-08T06:32:20;-3.50;99.90
12384;DHT22;6256;63.808;20.336;2023-01-08T06:34:46;-3.50;99.90
12384;DHT22;6256;63.808;20.336;2023-01-08T06:37:11;-3.50;99.90
12384;DHT22;6256;63.808;20.336;2023-01-08T06:39:37;-3.50;99.90
12384;DHT22;6256;63.808;20.336;2023-01-08T06:42:03;-3.60;99.90
12384;DHT22;6256;63.808;20.336;2023-01-08T06:44:29;-3.50;99.90
12384;DHT22;6256;63.808;20.336;2023-01-08T06:46:54;-3.50;99.90
12384;DHT22;6256;63.808;20.336;2023-01-08T06:49:20;-3.50;99.90
12384;DHT22;6256;63.808;20.336;2023-01-08T06:51:47;-3.50;99.90
12384;DHT22;6256;63.808;20.336;2023-01-08T06:54:13;-3.50;99.90
12384;DHT22;6256;63.808;20.336;2023-01-08T06:56:38;-3.50;99.90
12384;DHT22;6256;63.808;20.336;2023-01-08T06:59:04;-3.50;99.90
12384;DHT22;6256;63.808;20.336;2023-01-08T07:01:29;-3.50;99.90
12384;DHT22;6256;63.808;20.336;2023-01-08T07:03:55;-3.50;99.90
12384;DHT22;6256;63.808;20.336;2023-01-08T07:06:22;-3.50;99.90
12384;DHT22;6256;63.808;20.336;2023-01-08T07:08:48;-3.50;99.90
12384;DHT22;6256;63.808;20.336;2023-01-08T07:11:14;-3.50;99.90
12384;DHT22;6256;63.808;20.336;2023-01-08T07:13:40;-3.50;99.90
12384;DHT22;6256;63.808;20.336;2023-01-08T07:16:10;-3.40;99.90
12384;DHT22;6256;63.808;20.336;2023-01-08T07:18:37;-3.50;99.90
12384;DHT22;6256;63.808;20.336;2023-01-08T07:21:03;-3.50;99.90
12384;DHT22;6256;63.808;20.336;2023-01-08T07:23:30;-3.50;99.90
12384;DHT22;6256;63.808;20.336;2023-01-08T07:25:59;-3.50;99.90
12384;DHT22;6256;63.808;20.336;2023-01-08T07:28:26;-3.50;99.90
12384;DHT22;6256;63.808;20.336;2023-01-08T07:30:51;-3.50;99.90
12384;DHT22;6256;63.808;20.336;2023-01-08T07:33:17;-3.50;99.90
12384;DHT22;6256;63.808;20.336;2023-01-08T07:35:43;-3.40;99.90
12384;DHT22;6256;63.808;20.336;2023-01-08T07:38:08;-3.50;99.90
12384;DHT22;6256;63.808;20.336;2023-01-08T07:40:34;-3.50;99.90
12384;DHT22;6256;63.808;20.336;2023-01-08T07:43:02;-3.50;99.90
12384;DHT22;6256;63.808;20.336;2023-01-08T07:45:28;-3.50;99.90
12384;DHT22;6256;63.808;20.336;2023-01-08T07:47:58;-3.50;99.90
12384;DHT22;6256;63.808;20.336;2023-01-08T07:50:24;-3.40;99.90
12384;DHT22;6256;63.808;20.336;2023-01-08T07:52:49;-3.50;99.90
12384;DHT22;6256;63.808;20.336;2023-01-08T07:55:15;-3.50;99.90
12384;DHT22;6256;63.808;20.336;2023-01-08T07:57:41;-3.50;99.90
12384;DHT22;6256;63.808;20.336;2023-01-08T08:00:07;-3.50;99.90
12384;DHT22;6256;63.808;20.336;2023-01-08T08:02:33;-3.60;99.90
12384;DHT22;6256;63.808;20.336;2023-01-08T08:04:59;-3.50;99.90
12384;DHT22;6256;63.808;20.336;2023-01-08T08:07:24;-3.50;99.90
12384;DHT22;6256;63.808;20.336;2023-01-08T08:09:50;-3.50;99.90
12384;DHT22;6256;63.808;20.336;2023-01-08T08:12:16;-3.50;99.90
12384;DHT22;6256;63.808;20.336;2023-01-08T08:14:41;-3.50;99.90
12384;DHT22;6256;63.808;20.336;2023-01-08T08:17:07;-3.50;99.90
12384;DHT22;6256;63.808;20.336;2023-01-08T08:19:33;-3.50;99.90
12384;DHT22;6256;63.808;20.336;2023-01-08T08:21:58;-3.50;99.90
12384;DHT22;6256;63.808;20.336;2023-01-08T08:24:24;-3.50;99.90
12384;DHT22;6256;63.808;20.336;2023-01-08T08:26:50;-3.50;99.90
12384;DHT22;6256;63.808;20.336;2023-01-08T08:29:16;-3.50;99.90
12384;DHT22;6256;63.808;20.336;2023-01-08T08:31:41;-3.50;99.90
12384;DHT22;6256;63.808;20.336;2023-01-08T08:34:07;-3.50;99.90
12384;DHT22;6256;63.808;20.336;2023-01-08T08:36:33;-3.60;99.90
12384;DHT22;6256;63.808;20.336;2023-01-08T08:38:58;-3.60;99.90
12384;DHT22;6256;63.808;20.336;2023-01-08T08:41:24;-3.60;99.90
12384;DHT22;6256;63.808;20.336;2023-01-08T08:43:50;-3.60;99.90
12384;DHT22;6256;63.808;20.336;2023-01-08T08:46:16;-3.60;99.90
12384;DHT22;6256;63.808;20.336;2023-01-08T08:48:44;-3.60;99.90
12384;DHT22;6256;63.808;20.336;2023-01-08T08:51:11;-3.60;99.90
12384;DHT22;6256;63.808;20.336;2023-01-08T08:53:36;-3.60;99.90
12384;DHT22;6256;63.808;20.336;2023-01-08T08:56:02;-3.60;99.90
12384;DHT22;6256;63.808;20.336;2023-01-08T08:58:28;-3.70;99.90
12384;DHT22;6256;63.808;20.336;2023-01-08T09:00:53;-3.70;99.90
12384;DHT22;6256;63.808;20.336;2023-01-08T09:03:19;-3.60;99.90
12384;DHT22;6256;63.808;20.336;2023-01-08T09:05:45;-3.70;99.90
12384;DHT22;6256;63.808;20.336;2023-01-08T09:08:11;-3.60;99.90
12384;DHT22;6256;63.808;20.336;2023-01-08T09:10:38;-3.60;99.90
12384;DHT22;6256;63.808;20.336;2023-01-08T09:13:05;-3.60;99.90
12384;DHT22;6256;63.808;20.336;2023-01-08T09:15:31;-3.70;99.90
12384;DHT22;6256;63.808;20.336;2023-01-08T09:17:57;-3.60;99.90
12384;DHT22;6256;63.808;20.336;2023-01-08T09:20:24;-3.70;99.90
12384;DHT22;6256;63.808;20.336;2023-01-08T09:22:51;-3.70;99.90
12384;DHT22;6256;63.808;20.336;2023-01-08T09:25:17;-3.80;99.90
12384;DHT22;6256;63.808;20.336;2023-01-08T09:27:43;-3.80;99.90
12384;DHT22;6256;63.808;20.336;2023-01-08T09:30:09;-3.70;99.90
12384;DHT22;6256;63.808;20.336;2023-01-08T09:32:36;-3.80;99.90
12384;DHT22;6256;63.808;20.336;2023-01-08T09:35:03;-3.70;99.90
12384;DHT22;6256;63.808;20.336;2023-01-08T09:37:29;-3.70;99.90
12384;DHT22;6256;63.808;20.336;2023-01-08T09:39:55;-3.70;99.90
12384;DHT22;6256;63.808;20.336;2023-01-08T09:42:24;-3.70;99.90
12384;DHT22;6256;63.808;20.336;2023-01-08T09:44:52;-3.60;99.90
12384;DHT22;6256;63.808;20.336;2023-01-08T09:47:39;-3.60;99.90
12384;DHT22;6256;63.808;20.336;2023-01-08T09:50:11;-3.60;99.90
12384;DHT22;6256;63.808;20.336;2023-01-08T09:52:37;-3.60;99.90
12384;DHT22;6256;63.808;20.336;2023-01-08T09:55:12;-3.60;99.90
12384;DHT22;6256;63.808;20.336;2023-01-08T09:57:38;-3.70;99.90
12384;DHT22;6256;63.808;20.336;2023-01-08T10:00:31;-3.70;99.90
12384;DHT22;6256;63.808;20.336;2023-01-08T10:02:56;-3.60;99.90
12384;DHT22;6256;63.808;20.336;2023-01-08T10:05:24;-3.60;99.90
12384;DHT22;6256;63.808;20.336;2023-01-08T10:07:50;-3.60;99.90
12384;DHT22;6256;63.808;20.336;2023-01-08T10:10:22;-3.50;99.90
12384;DHT22;6256;63.808;20.336;2023-01-08T10:12:49;-3.50;99.90
12384;DHT22;6256;63.808;20.336;2023-01-08T10:15:17;-3.50;99.90
12384;DHT22;6256;63.808;20.336;2023-01-08T10:20:18;-3.60;99.90
12384;DHT22;6256;63.808;20.336;2023-01-08T10:22:44;-3.60;99.90
12384;DHT22;6256;63.808;20.336;2023-01-08T10:25:21;-3.60;99.90
12384;DHT22;6256;63.808;20.336;2023-01-08T10:27:50;-3.50;99.90
12384;DHT22;6256;63.808;20.336;2023-01-08T10:30:20;-3.50;99.90
12384;DHT22;6256;63.808;20.336;2023-01-08T10:32:47;-3.40;99.90
12384;DHT22;6256;63.808;20.336;2023-01-08T10:35:19;-3.40;99.90
12384;DHT22;6256;63.808;20.336;2023-01-08T10:37:45;-3.40;99.90
12384;DHT22;6256;63.808;20.336;2023-01-08T10:40:27;-3.40;99.90
12384;DHT22;6256;63.808;20.336;2023-01-08T10:42:56;-3.50;99.90
12384;DHT22;6256;63.808;20.336;2023-01-08T10:45:24;-3.60;99.90
12384;DHT22;6256;63.808;20.336;2023-01-08T10:47:55;-3.60;99.90
12384;DHT22;6256;63.808;20.336;2023-01-08T10:50:27;-3.60;99.90
12384;DHT22;6256;63.808;20.336;2023-01-08T10:53:05;-3.60;99.90
12384;DHT22;6256;63.808;20.336;2023-01-08T10:55:59;-3.60;99.90
12384;DHT22;6256;63.808;20.336;2023-01-08T10:58:27;-3.60;99.90
12384;DHT22;6256;63.808;20.336;2023-01-08T11:00:53;-3.50;99.90
12384;DHT22;6256;63.808;20.336;2023-01-08T11:03:26;-3.50;99.90
12384;DHT22;6256;63.808;20.336;2023-01-08T11:05:53;-3.50;99.90
12384;DHT22;6256;63.808;20.336;2023-01-08T11:08:20;-3.40;99.90
12384;DHT22;6256;63.808;20.336;2023-01-08T11:11:00;-3.40;99.90
12384;DHT22;6256;63.808;20.336;2023-01-08T11:13:27;-3.40;99.90
12384;DHT22;6256;63.808;20.336;2023-01-08T11:16:07;-3.40;99.90
12384;DHT22;6256;63.808;20.336;2023-01-08T11:18:55;-3.40;99.90
12384;DHT22;6256;63.808;20.336;2023-01-08T11:21:26;-3.40;99.90
12384;DHT22;6256;63.808;20.336;2023-01-08T11:24:18;-3.40;99.90
12384;DHT22;6256;63.808;20.336;2023-01-08T11:27:12;-3.40;99.90
12384;DHT22;6256;63.808;20.336;2023-01-08T11:32:46;-3.40;99.90
12384;DHT22;6256;63.808;20.336;2023-01-08T11:35:32;-3.40;99.90
12384;DHT22;6256;63.808;20.336;2023-01-08T11:38:01;-3.30;99.90
12384;DHT22;6256;63.808;20.336;2023-01-08T11:40:32;-3.40;99.90
12384;DHT22;6256;63.808;20.336;2023-01-08T11:48:34;-3.30;99.90
12384;DHT22;6256;63.808;20.336;2023-01-08T11:59:10;-3.20;99.90
12384;DHT22;6256;63.808;20.336;2023-01-08T12:05:08;-3.20;99.90
12384;DHT22;6256;63.808;20.336;2023-01-08T12:10:23;-3.20;99.90
12384;DHT22;6256;63.808;20.336;2023-01-08T12:21:11;-3.30;99.90
12384;DHT22;6256;63.808;20.336;2023-01-08T12:34:45;-3.30;99.90
12384;DHT22;6256;63.808;20.336;2023-01-08T12:37:20;-3.20;99.90
12384;DHT22;6256;63.808;20.336;2023-01-08T12:40:15;-3.30;99.90
12384;DHT22;6256;63.808;20.336;2023-01-08T12:42:43;-3.30;99.90
12384;DHT22;6256;63.808;20.336;2023-01-08T12:45:42;-3.30;99.90
12384;DHT22;6256;63.808;20.336;2023-01-08T12:48:30;-3.30;99.90
12384;DHT22;6256;63.808;20.336;2023-01-08T12:51:12;-3.20;99.90
12384;DHT22;6256;63.808;20.336;2023-01-08T12:56:42;-3.20;99.90
12384;DHT22;6256;63.808;20.336;2023-01-08T13:01:51;-3.20;99.90
12384;DHT22;6256;63.808;20.336;2023-01-08T13:04:18;-3.20;99.90
12384;DHT22;6256;63.808;20.336;2023-01-08T13:07:03;-3.20;99.90
12384;DHT22;6256;63.808;20.336;2023-01-08T13:09:30;-3.20;99.90
12384;DHT22;6256;63.808;20.336;2023-01-08T13:11:58;-3.20;99.90
12384;DHT22;6256;63.808;20.336;2023-01-08T13:14:24;-3.10;99.90
12384;DHT22;6256;63.808;20.336;2023-01-08T13:17:05;-3.10;99.90
12384;DHT22;6256;63.808;20.336;2023-01-08T13:19:43;-3.10;99.90
12384;DHT22;6256;63.808;20.336;2023-01-08T13:22:30;-3.10;99.90
12384;DHT22;6256;63.808;20.336;2023-01-08T13:27:37;-3.10;99.90
12384;DHT22;6256;63.808;20.336;2023-01-08T13:30:28;-3.10;99.90
12384;DHT22;6256;63.808;20.336;2023-01-08T13:32:49;-3.10;99.90
12384;DHT22;6256;63.808;20.336;2023-01-08T13:37:41;-3.10;99.90
12384;DHT22;6256;63.808;20.336;2023-01-08T13:43:03;-3.20;99.90
12384;DHT22;6256;63.808;20.336;2023-01-08T13:45:30;-3.20;99.90
12384;DHT22;6256;63.808;20.336;2023-01-08T13:47:56;-3.20;99.90
12384;DHT22;6256;63.808;20.336;2023-01-08T13:50:24;-3.10;99.90
12384;DHT22;6256;63.808;20.336;2023-01-08T13:52:59;-3.10;99.90
12384;DHT22;6256;63.808;20.336;2023-01-08T13:57:58;-3.10;99.90
12384;DHT22;6256;63.808;20.336;2023-01-08T14:00:30;-3.00;99.90
12384;DHT22;6256;63.808;20.336;2023-01-08T14:02:58;-3.00;99.90
12384;DHT22;6256;63.808;20.336;2023-01-08T14:05:31;-3.00;99.90
12384;DHT22;6256;63.808;20.336;2023-01-08T14:08:01;-3.00;99.90
12384;DHT22;6256;63.808;20.336;2023-01-08T14:10:29;-3.00;99.90
12384;DHT22;6256;63.808;20.336;2023-01-08T14:13:06;-3.00;99.90
12384;DHT22;6256;63.808;20.336;2023-01-08T14:15:33;-3.00;99.90
12384;DHT22;6256;63.808;20.336;2023-01-08T14:18:00;-3.00;99.90
12384;DHT22;6256;63.808;20.336;2023-01-08T14:20:38;-3.00;99.90
12384;DHT22;6256;63.808;20.336;2023-01-08T14:23:15;-3.00;99.90
12384;DHT22;6256;63.808;20.336;2023-01-08T14:25:46;-3.00;99.90
12384;DHT22;6256;63.808;20.336;2023-01-08T14:28:16;-3.00;99.90
12384;DHT22;6256;63.808;20.336;2023-01-08T14:30:50;-2.90;99.90
12384;DHT22;6256;63.808;20.336;2023-01-08T14:33:19;-3.00;99.90
12384;DHT22;6256;63.808;20.336;2023-01-08T14:35:47;-3.00;99.90
12384;DHT22;6256;63.808;20.336;2023-01-08T14:38:16;-3.00;99.90
12384;DHT22;6256;63.808;20.336;2023-01-08T14:40:44;-3.00;99.90
12384;DHT22;6256;63.808;20.336;2023-01-08T14:43:15;-3.00;99.90
12384;DHT22;6256;63.808;20.336;2023-01-08T14:45:47;-3.00;99.90
12384;DHT22;6256;63.808;20.336;2023-01-08T14:48:24;-2.90;99.90
12384;DHT22;6256;63.808;20.336;2023-01-08T14:51:05;-2.90;99.90
12384;DHT22;6256;63.808;20.336;2023-01-08T14:53:43;-2.90;99.90
12384;DHT22;6256;63.808;20.336;2023-01-08T14:56:19;-2.90;99.90
12384;DHT22;6256;63.808;20.336;2023-01-08T14:58:46;-2.90;99.90
12384;DHT22;6256;63.808;20.336;2023-01-08T15:01:22;-2.90;99.90
12384;DHT22;6256;63.808;20.336;2023-01-08T15:03:49;-2.90;99.90
12384;DHT22;6256;63.808;20.336;2023-01-08T15:06:26;-2.90;99.90
12384;DHT22;6256;63.808;20.336;2023-01-08T15:08:52;-2.90;99.90
12384;DHT22;6256;63.808;20.336;2023-01-08T15:13:47;-2.90;99.90
12384;DHT22;6256;63.808;20.336;2023-01-08T15:16:30;-2.90;99.90
12384;DHT22;6256;63.808;20.336;2023-01-08T15:21:22;-2.90;99.90
12384;DHT22;6256;63.808;20.336;2023-01-08T15:23:53;-2.90;99.90
12384;DHT22;6256;63.808;20.336;2023-01-08T15:26:20;-2.80;99.90
12384;DHT22;6256;63.808;20.336;2023-01-08T15:32:06;-2.80;99.90
12384;DHT22;6256;63.808;20.336;2023-01-08T15:34:18;-2.90;99.90
12384;DHT22;6256;63.808;20.336;2023-01-08T15:36:47;-2.90;99.90
12384;DHT22;6256;63.808;20.336;2023-01-08T15:39:13;-2.90;99.90
12384;DHT22;6256;63.808;20.336;2023-01-08T15:41:39;-2.90;99.90
12384;DHT22;6256;63.808;20.336;2023-01-08T15:44:24;-2.90;99.90
12384;DHT22;6256;63.808;20.336;2023-01-08T15:46:53;-2.90;99.90
12384;DHT22;6256;63.808;20.336;2023-01-08T15:49:19;-2.90;99.90
12384;DHT22;6256;63.808;20.336;2023-01-08T15:51:47;-3.00;99.90
12384;DHT22;6256;63.808;20.336;2023-01-08T15:54:13;-3.00;99.90
12384;DHT22;6256;63.808;20.336;2023-01-08T15:56:40;-3.00;99.90
12384;DHT22;6256;63.808;20.336;2023-01-08T15:59:06;-2.90;99.90
12384;DHT22;6256;63.808;20.336;2023-01-08T16:01:32;-3.00;99.90
12384;DHT22;6256;63.808;20.336;2023-01-08T16:03:58;-3.00;99.90
12384;DHT22;6256;63.808;20.336;2023-01-08T16:06:24;-3.00;99.90
12384;DHT22;6256;63.808;20.336;2023-01-08T16:08:49;-3.00;99.90
12384;DHT22;6256;63.808;20.336;2023-01-08T16:11:18;-3.00;99.90
12384;DHT22;6256;63.808;20.336;2023-01-08T16:13:45;-3.10;99.90
12384;DHT22;6256;63.808;20.336;2023-01-08T16:16:13;-3.10;99.90
12384;DHT22;6256;63.808;20.336;2023-01-08T16:18:40;-3.00;99.90
12384;DHT22;6256;63.808;20.336;2023-01-08T16:21:07;-3.00;99.90
12384;DHT22;6256;63.808;20.336;2023-01-08T16:23:34;-3.00;99.90
12384;DHT22;6256;63.808;20.336;2023-01-08T16:26:18;-3.00;99.90
12384;DHT22;6256;63.808;20.336;2023-01-08T16:28:44;-3.00;99.90
12384;DHT22;6256;63.808;20.336;2023-01-08T16:31:10;-3.00;99.90
12384;DHT22;6256;63.808;20.336;2023-01-08T16:33:36;-3.00;99.90
12384;DHT22;6256;63.808;20.336;2023-01-08T16:36:04;-3.00;99.90
12384;DHT22;6256;63.808;20.336;2023-01-08T16:38:31;-3.00;99.90
12384;DHT22;6256;63.808;20.336;2023-01-08T16:40:57;-3.00;99.90
12384;DHT22;6256;63.808;20.336;2023-01-08T16:43:28;-2.90;99.90
12384;DHT22;6256;63.808;20.336;2023-01-08T16:45:54;-3.00;99.90
12384;DHT22;6256;63.808;20.336;2023-01-08T16:48:20;-2.90;99.90
12384;DHT22;6256;63.808;20.336;2023-01-08T16:50:47;-2.90;99.90
12384;DHT22;6256;63.808;20.336;2023-01-08T16:53:13;-2.80;99.90
12384;DHT22;6256;63.808;20.336;2023-01-08T16:55:40;-2.80;99.90
12384;DHT22;6256;63.808;20.336;2023-01-08T16:58:06;-2.90;99.90
12384;DHT22;6256;63.808;20.336;2023-01-08T17:00:36;-2.80;99.90
12384;DHT22;6256;63.808;20.336;2023-01-08T17:03:04;-2.80;99.90